createdAt,value
2023-02-22T00:02:10.996Z,22.73
2023-02-22T00:07:14.908Z,22.02
2023-02-22T00:12:16.359Z,21.60
2023-02-22T00:17:20.450Z,20.20
2023-02-22T00:22:21.891Z,21.60
2023-02-22T00:27:23.586Z,23.67
2023-02-22T00:32:25.030Z,20.13
2023-02-22T00:37:26.571Z,23.52
2023-02-22T00:42:27.985Z,21.40
2023-02-22T00:47:30.224Z,18.48
2023-02-22T00:52:31.737Z,21.08
2023-02-22T00:57:36.567Z,22.05
2023-02-22T01:02:39.682Z,22.23
2023-02-22T01:07:41.466Z,15.18
2023-02-22T01:12:43.208Z,13.38
2023-02-22T01:17:44.617Z,20.42
2023-02-22T01:22:48.538Z,18.10
2023-02-22T01:27:51.210Z,16.63
2023-02-22T01:32:52.975Z,23.00
2023-02-22T01:37:54.971Z,19.98
2023-02-22T01:43:02.309Z,18.58
2023-02-22T01:48:14.847Z,27.58
2023-02-22T01:53:19.029Z,14.32
2023-02-22T01:58:22.369Z,19.48
2023-02-22T02:03:28.308Z,15.98
2023-02-22T02:08:59.518Z,19.75
2023-02-22T02:14:01.219Z,18.10
2023-02-22T02:19:05.540Z,15.43
2023-02-22T02:24:41.834Z,15.25
2023-02-22T02:30:20.575Z,18.05
2023-02-22T02:35:35.776Z,23.77
2023-02-22T02:41:08.577Z,24.92
2023-02-22T02:46:19.067Z,35.72
2023-02-22T02:51:22.509Z,30.55
2023-02-22T02:56:24.570Z,30.00
2023-02-22T03:01:44.654Z,25.98
2023-02-22T03:06:46.046Z,20.33
2023-02-22T03:12:05.813Z,19.90
2023-02-22T03:17:21.031Z,20.33
2023-02-22T03:22:37.718Z,16.80
2023-02-22T03:27:55.564Z,17.83
2023-02-22T03:33:03.222Z,20.38
2023-02-22T03:38:09.561Z,21.90
2023-02-22T03:43:16.513Z,18.98
2023-02-22T03:48:28.650Z,18.95
2023-02-22T03:53:32.803Z,16.45
2023-02-22T03:58:36.539Z,20.08
2023-02-22T04:03:37.953Z,16.65
2023-02-22T04:08:39.675Z,19.38
2023-02-22T04:13:41.356Z,16.48
2023-02-22T04:18:42.973Z,21.42
2023-02-22T04:23:44.430Z,21.05
2023-02-22T04:28:45.867Z,16.08
2023-02-22T04:33:47.474Z,13.30
2023-02-22T04:38:48.959Z,22.73
2023-02-22T04:43:50.411Z,29.08
2023-02-22T04:48:51.878Z,45.83
2023-02-22T04:53:53.299Z,42.45
2023-02-22T04:58:54.722Z,33.10
2023-02-22T05:03:56.166Z,30.17
2023-02-22T05:08:57.727Z,27.75
2023-02-22T05:13:59.278Z,27.48
2023-02-22T05:19:00.784Z,18.55
2023-02-22T05:24:02.230Z,20.50
2023-02-22T05:29:03.704Z,17.45
2023-02-22T05:34:05.130Z,22.00
2023-02-22T05:39:06.627Z,17.88
2023-02-22T05:44:08.197Z,17.10
2023-02-22T05:49:09.667Z,22.05
2023-02-22T05:54:11.124Z,16.00
2023-02-22T05:59:12.591Z,21.63
2023-02-22T06:04:14.052Z,15.20
2023-02-22T06:09:15.685Z,24.13
2023-02-22T06:14:17.099Z,16.10
2023-02-22T06:19:18.519Z,17.55
2023-02-22T06:24:21.038Z,14.25
2023-02-22T06:29:24.185Z,14.63
2023-02-22T06:34:25.702Z,19.08
2023-02-22T06:39:27.221Z,13.77
2023-02-22T06:44:28.640Z,12.82
2023-02-22T06:49:30.050Z,20.45
2023-02-22T06:54:31.494Z,22.38
2023-02-22T06:59:32.904Z,20.70
2023-02-22T07:04:35.596Z,19.73
2023-02-22T07:09:38.477Z,20.63
2023-02-22T07:14:39.971Z,18.63
2023-02-22T07:19:41.406Z,21.45
2023-02-22T07:24:43.225Z,30.48
2023-02-22T07:29:44.681Z,24.95
2023-02-22T07:34:46.111Z,30.67
2023-02-22T07:39:47.567Z,25.88
2023-02-22T07:44:49.001Z,30.38
2023-02-22T07:49:50.517Z,44.67
2023-02-22T07:54:52.025Z,41.03
2023-02-22T07:59:53.682Z,30.85
2023-02-22T08:04:55.097Z,35.55
2023-02-22T08:09:56.501Z,33.08
2023-02-22T08:14:57.957Z,41.53
2023-02-22T08:19:59.479Z,33.88
2023-02-22T08:25:00.980Z,35.40
2023-02-22T08:30:02.447Z,33.45
2023-02-22T08:35:04.213Z,30.88
2023-02-22T08:40:05.989Z,41.05
2023-02-22T08:45:07.979Z,36.42
2023-02-22T08:50:15.615Z,26.85
2023-02-22T08:55:20.349Z,34.30
2023-02-22T09:00:25.271Z,24.48
2023-02-22T09:05:26.888Z,21.92
2023-02-22T09:10:31.242Z,19.73
2023-02-22T09:15:35.947Z,21.38
2023-02-22T09:20:37.515Z,19.55
2023-02-22T09:25:40.868Z,23.05
2023-02-22T09:30:43.113Z,20.65
2023-02-22T09:35:46.705Z,19.75
2023-02-22T09:40:54.691Z,26.25
2023-02-22T09:46:13.418Z,19.85
2023-02-22T09:51:18.431Z,15.23
2023-02-22T09:56:21.110Z,22.52
2023-02-22T10:01:27.016Z,22.83
2023-02-22T10:06:29.864Z,18.65
2023-02-22T10:11:48.773Z,32.10
2023-02-22T10:17:04.131Z,27.20
2023-02-22T10:22:16.989Z,26.70
2023-02-22T10:27:34.219Z,28.88
2023-02-22T10:32:47.955Z,28.63
2023-02-22T10:37:59.207Z,21.88
2023-02-22T10:43:06.559Z,22.05
2023-02-22T10:48:18.524Z,25.17
2023-02-22T10:53:20.123Z,24.05
2023-02-22T10:58:21.667Z,22.77
2023-02-22T11:03:24.229Z,20.38
2023-02-22T11:08:32.821Z,15.77
2023-02-22T11:13:39.413Z,19.15
2023-02-22T11:18:40.889Z,16.75
2023-02-22T11:23:44.981Z,19.23
2023-02-22T11:28:56.079Z,19.40
2023-02-22T11:33:59.009Z,20.35
2023-02-22T11:39:01.067Z,19.90
2023-02-22T11:44:21.113Z,22.25
2023-02-22T11:49:36.821Z,16.38
2023-02-22T11:55:02.026Z,17.98
2023-02-22T12:00:24.645Z,17.05
2023-02-22T12:05:26.408Z,18.17
2023-02-22T12:10:38.936Z,19.35
2023-02-22T12:15:56.246Z,20.00
2023-02-22T12:21:02.568Z,19.77
2023-02-22T12:26:14.523Z,19.42
2023-02-22T12:31:25.662Z,16.63
2023-02-22T12:36:38.651Z,21.20
2023-02-22T12:41:48.541Z,12.95
2023-02-22T12:46:53.442Z,17.30
2023-02-22T12:52:09.517Z,15.98
2023-02-22T12:57:36.139Z,14.80
2023-02-22T13:02:45.465Z,14.80
2023-02-22T13:08:02.479Z,9.63
2023-02-22T13:13:29.851Z,13.02
2023-02-22T13:18:57.421Z,12.02
2023-02-22T13:24:38.072Z,15.73
2023-02-22T13:29:55.314Z,13.85
2023-02-22T13:35:14.650Z,14.85
2023-02-22T13:40:22.095Z,13.80
2023-02-22T13:45:53.350Z,13.73
2023-02-22T13:51:20.657Z,10.93
2023-02-22T13:56:26.672Z,13.48
2023-02-22T14:01:53.460Z,15.15
2023-02-22T14:07:04.310Z,16.90
2023-02-22T14:12:06.005Z,7.60
2023-02-22T14:17:24.042Z,18.63
2023-02-22T14:22:28.677Z,20.75
2023-02-22T14:27:40.294Z,15.23
2023-02-22T14:32:41.802Z,14.40
2023-02-22T14:37:49.230Z,11.77
2023-02-22T14:43:01.908Z,13.52
2023-02-22T14:48:27.271Z,14.18
2023-02-22T14:53:44.224Z,13.25
2023-02-22T14:58:49.569Z,15.35
2023-02-22T15:04:02.130Z,12.77
2023-02-22T15:09:28.534Z,15.63
2023-02-22T15:14:37.513Z,12.95
2023-02-22T15:19:41.616Z,17.23
2023-02-22T15:24:43.130Z,8.52
2023-02-22T15:29:45.369Z,10.43
2023-02-22T15:34:46.881Z,12.13
2023-02-22T15:39:48.330Z,13.95
2023-02-22T15:44:53.750Z,9.77
2023-02-22T15:50:18.379Z,11.18
2023-02-22T15:55:25.618Z,15.73
2023-02-22T16:00:37.132Z,11.18
2023-02-22T16:05:44.187Z,12.30
2023-02-22T16:11:04.486Z,15.77
2023-02-22T16:16:22.452Z,21.00
2023-02-22T16:21:23.932Z,24.30
2023-02-22T16:26:35.516Z,15.48
2023-02-22T16:31:39.830Z,19.95
2023-02-22T16:36:47.368Z,15.15
2023-02-22T16:41:50.795Z,14.77
2023-02-22T16:46:57.700Z,16.40
2023-02-22T16:52:01.478Z,16.27
2023-02-22T16:57:06.224Z,18.23
2023-02-22T17:02:13.453Z,18.25
2023-02-22T17:07:29.831Z,19.50
2023-02-22T17:12:32.107Z,17.98
2023-02-22T17:17:33.555Z,20.30
2023-02-22T17:22:34.960Z,21.98
2023-02-22T17:27:36.376Z,19.75
2023-02-22T17:32:37.860Z,20.98
2023-02-22T17:37:39.300Z,25.48
2023-02-22T17:42:43.300Z,22.23
2023-02-22T17:47:44.832Z,20.77
2023-02-22T17:52:46.783Z,21.23
2023-02-22T17:57:58.212Z,18.08
2023-02-22T18:03:10.832Z,20.90
2023-02-22T18:08:13.266Z,22.48
2023-02-22T18:13:19.624Z,19.88
2023-02-22T18:18:22.205Z,20.10
2023-02-22T18:23:27.815Z,27.42
2023-02-22T18:28:31.178Z,24.23
2023-02-22T18:33:32.681Z,17.52
2023-02-22T18:38:34.135Z,27.63
2023-02-22T18:43:36.310Z,28.85
2023-02-22T18:48:38.951Z,25.92
2023-02-22T18:53:46.598Z,35.15
2023-02-22T18:58:52.388Z,27.50
2023-02-22T19:03:54.108Z,27.17
2023-02-22T19:08:55.530Z,25.98
2023-02-22T19:13:58.267Z,27.60
2023-02-22T19:18:59.783Z,29.08
2023-02-22T19:24:01.647Z,25.25
2023-02-22T19:29:08.424Z,27.20
2023-02-22T19:34:12.019Z,33.40
2023-02-22T19:39:19.174Z,25.00
2023-02-22T19:44:20.960Z,23.35
2023-02-22T19:54:30.263Z,19.73
2023-02-22T19:59:31.684Z,22.60
2023-02-22T20:04:34.143Z,23.67
2023-02-22T20:09:43.156Z,19.63
2023-02-22T20:14:46.285Z,17.83
2023-02-22T20:19:48.848Z,20.52
2023-02-22T20:24:50.377Z,20.65
2023-02-22T20:29:51.814Z,21.75
2023-02-22T20:34:53.241Z,21.38
2023-02-22T20:39:54.660Z,21.77
2023-02-22T20:45:01.630Z,20.58
2023-02-22T20:50:05.629Z,22.50
2023-02-22T20:55:11.412Z,19.27
2023-02-22T21:00:14.490Z,27.42
2023-02-22T21:05:16.110Z,25.98
2023-02-22T21:10:21.056Z,24.38
2023-02-22T21:15:25.882Z,25.25
2023-02-22T21:20:27.338Z,24.30
2023-02-22T21:25:31.504Z,25.13
2023-02-22T21:30:33.311Z,21.13
2023-02-22T21:35:40.392Z,25.08
2023-02-22T21:40:42.358Z,26.08
2023-02-22T21:45:43.947Z,21.35
2023-02-22T21:50:45.419Z,30.48
2023-02-22T21:55:46.856Z,36.58
2023-02-22T22:00:48.628Z,28.63
2023-02-22T22:05:50.057Z,29.92
2023-02-22T22:10:55.307Z,26.35
2023-02-22T22:16:03.367Z,26.92
2023-02-22T22:21:10.764Z,26.77
2023-02-22T22:26:14.293Z,29.08
2023-02-22T22:31:18.049Z,27.48
2023-02-22T22:36:23.739Z,29.17
2023-02-22T22:41:28.124Z,30.23
2023-02-22T22:46:29.754Z,25.95
2023-02-22T22:51:33.557Z,31.13
2023-02-22T22:56:37.794Z,29.30
2023-02-22T23:01:44.639Z,29.75
2023-02-22T23:06:50.720Z,27.77
2023-02-22T23:11:57.820Z,28.80
2023-02-22T23:17:03.625Z,34.42
2023-02-22T23:22:07.029Z,34.10
2023-02-22T23:27:10.681Z,32.25
2023-02-22T23:32:14.180Z,34.10
2023-02-22T23:37:19.186Z,31.95
2023-02-22T23:42:23.000Z,31.17
2023-02-22T23:47:24.761Z,37.28
2023-02-22T23:52:29.856Z,33.80
2023-02-22T23:57:32.815Z,32.08
